Dillingham Airport Dillingham US
ICAO: PADL
IATA:
Category: Medium
Scheduled Services:

Elevation: 81 ft
TransAlt. 18000 ft.

Airport Communications:
ATIS:125
AWOS 3:135.55
ANCHORAGE CNTR:132.75
CTAF:123.6
RDO:122.3

PADL Zoom In..

If you have problems with the map follow the link
https://www.worldairports.se/pages/airport.php?
ICAO=PADL

Runways:

(A) RW 01 length 6400 ft width 150 ft
LOC 111.90 / hdg 11

(B) RW 19 length 6400 ft width 150 ft
LOC 111.90 / hdg 191

Location; PADL
Day. 16 / Time. 12.16 Zulu
* Altimeter: 29.79
* Temperature: 03° c. 37.4°f.
* Wind from: 030° Speed 13 kn.
Dewpoint: 02° c.
Visibility: 10 Statute Miles.
Clouds: Scattered 3000 ft.
Clouds: Broken 3900 ft.
Clouds: Overcast 5000 ft.

PADL 161216Z AUTO 03013KT 10SM SCT030 BKN039 OVC050 03/02 A2979 RMK AO2


Wind From 030°
Speed 13 kn.

 
 
jpsmedia.com for Web Design worldairports.se 2018   terms of use